KELK

Elk City Regional Business Airport

Elk City, Oklahoma, USA
METAR KELK 250055Z AUTO 15012KT 10SM CLR 30/17 A2996 RMK AO2 T02950167
Observed Flight Rules
May-25 @ 00:55 UTC (18 minutes ago) Visual Flight Rules
Wind Visibility Clouds
150° at 12 knots 10 miles
  • Clear skies
Temperatures Readings
Current 30°C / 86°F
Dewpoint 17°C / 63°F
Humidity 46%
Altimeter 29.96" Hg
Pressure 1015 hPa
Elevation 610
METAR KELK 250055Z AUTO 15012KT 10SM CLR 30/17 A2996 RMK AO2 T02950167
Observed Flight Rules
May-25 @ 00:55 UTC
(18 minutes ago)
VFR
Wind Visibility
150° at 12 knots 10 miles
Clouds
  • Clear skies
Temperature Dewpoint
30°C / 86°F 17°C / 63°F
Humidity Altimeter Pressure
46% 29.96" Hg 1015 hPa